createdAt,value
2019-05-18T00:00:21.215Z,37.78
2019-05-18T00:02:51.395Z,39.13
2019-05-18T00:05:21.349Z,35.85
2019-05-18T00:07:51.151Z,35.88
2019-05-18T00:10:21.581Z,36.58
2019-05-18T00:12:51.677Z,39.20
2019-05-18T00:15:21.561Z,38.30
2019-05-18T00:17:51.608Z,37.25
2019-05-18T00:20:21.438Z,39.03
2019-05-18T00:22:51.542Z,40.03
2019-05-18T00:25:21.760Z,38.80
2019-05-18T00:27:51.652Z,39.78
2019-05-18T00:30:21.673Z,39.13
2019-05-18T00:32:51.493Z,40.48
2019-05-18T00:35:21.622Z,40.03
2019-05-18T00:37:51.514Z,40.75
2019-05-18T00:40:21.391Z,39.03
2019-05-18T00:42:51.478Z,38.35
2019-05-18T00:45:21.299Z,36.68
2019-05-18T00:47:51.108Z,39.33
2019-05-18T00:50:21.328Z,37.53
2019-05-18T00:52:51.131Z,36.55
2019-05-18T00:55:20.950Z,35.13
2019-05-18T00:57:51.168Z,34.83
2019-05-18T01:00:22.182Z,34.53
2019-05-18T01:02:52.335Z,36.30
2019-05-18T01:05:22.220Z,33.48
2019-05-18T01:07:52.032Z,34.27
2019-05-18T01:10:22.382Z,34.00
2019-05-18T01:12:52.186Z,34.10
2019-05-18T01:15:22.128Z,32.42
2019-05-18T01:17:57.200Z,31.07
2019-05-18T01:20:24.219Z,30.57
2019-05-18T01:22:54.320Z,31.20
2019-05-18T01:25:24.208Z,30.32
2019-05-18T01:27:54.350Z,32.20
2019-05-18T01:30:24.390Z,33.40
2019-05-18T01:32:54.183Z,32.95
2019-05-18T01:35:24.122Z,30.90
2019-05-18T01:37:54.000Z,33.25
2019-05-18T01:40:24.235Z,30.25
2019-05-18T01:42:54.348Z,32.48
2019-05-18T01:45:24.577Z,30.20
2019-05-18T01:47:54.699Z,30.00
2019-05-18T01:50:25.588Z,30.15
2019-05-18T01:52:55.420Z,31.48
2019-05-18T01:55:25.227Z,30.90
2019-05-18T01:57:55.385Z,31.93
2019-05-18T02:00:25.596Z,31.33
2019-05-18T02:02:55.715Z,32.10
2019-05-18T02:05:25.535Z,32.75
2019-05-18T02:07:55.661Z,33.95
2019-05-18T02:10:25.460Z,33.73
2019-05-18T02:12:55.256Z,34.63
2019-05-18T02:15:25.491Z,33.33
2019-05-18T02:17:55.322Z,33.92
2019-05-18T02:20:25.553Z,36.33
2019-05-18T02:22:55.356Z,36.50
2019-05-18T02:25:25.237Z,35.08
2019-05-18T02:27:55.058Z,35.45
2019-05-18T02:30:25.205Z,33.25
2019-05-18T02:32:56.081Z,31.37
2019-05-18T02:35:25.890Z,33.05
2019-05-18T02:37:57.338Z,32.25
2019-05-18T02:40:27.428Z,33.55
2019-05-18T02:42:57.220Z,32.98
2019-05-18T02:45:27.103Z,32.42
2019-05-18T02:47:56.904Z,35.45
2019-05-18T02:50:26.790Z,33.02
2019-05-18T02:52:56.890Z,31.73
2019-05-18T02:55:27.027Z,31.65
2019-05-18T02:57:56.879Z,31.62
2019-05-18T03:00:26.698Z,34.70
2019-05-18T03:02:56.756Z,32.90
2019-05-18T03:05:26.815Z,33.58
2019-05-18T03:07:56.747Z,32.70
2019-05-18T03:10:26.908Z,33.25
2019-05-18T03:12:56.800Z,30.95
2019-05-18T03:15:26.684Z,32.50
2019-05-18T03:17:57.891Z,30.23
2019-05-18T03:20:28.765Z,32.93
2019-05-18T03:22:58.574Z,32.48
2019-05-18T03:25:28.396Z,33.30
2019-05-18T03:27:58.203Z,34.50
2019-05-18T03:30:28.015Z,33.00
2019-05-18T03:32:57.835Z,31.55
2019-05-18T03:35:27.671Z,32.63
2019-05-18T03:37:57.824Z,32.93
2019-05-18T03:40:27.937Z,34.15
2019-05-18T03:42:58.744Z,35.05
2019-05-18T03:45:28.687Z,36.60
2019-05-18T03:47:58.810Z,35.43
2019-05-18T03:50:28.639Z,35.28
2019-05-18T03:52:58.463Z,34.83
2019-05-18T03:55:28.271Z,34.27
2019-05-18T03:57:58.382Z,34.08
2019-05-18T04:00:28.281Z,32.78
2019-05-18T04:02:58.376Z,31.30
2019-05-18T04:05:28.242Z,34.53
2019-05-18T04:07:58.383Z,35.80
2019-05-18T04:10:28.443Z,35.15
2019-05-18T04:12:58.687Z,36.30
2019-05-18T04:15:28.908Z,34.38
2019-05-18T04:17:58.743Z,35.48
2019-05-18T04:20:28.854Z,37.85
2019-05-18T04:22:59.901Z,34.33
2019-05-18T04:25:29.691Z,30.05
2019-05-18T04:27:59.761Z,25.75
2019-05-18T04:30:29.568Z,21.65
2019-05-18T04:32:59.704Z,22.37
2019-05-18T04:35:29.773Z,21.10
2019-05-18T04:37:59.572Z,19.50
2019-05-18T04:40:29.397Z,20.08
2019-05-18T04:42:59.448Z,20.75
2019-05-18T04:45:29.260Z,18.48
2019-05-18T04:47:59.366Z,17.40
2019-05-18T04:50:29.266Z,16.60
2019-05-18T04:52:59.074Z,16.85
2019-05-18T04:55:29.051Z,17.73
2019-05-18T04:57:59.312Z,18.55
2019-05-18T05:00:29.536Z,16.62
2019-05-18T05:02:59.860Z,18.07
2019-05-18T05:05:29.982Z,17.17
2019-05-18T05:07:59.801Z,19.32
2019-05-18T05:10:30.129Z,17.48
2019-05-18T05:12:59.962Z,17.90
2019-05-18T05:15:29.767Z,18.45
2019-05-18T05:17:59.897Z,17.55
2019-05-18T05:20:29.996Z,18.30
2019-05-18T05:22:59.797Z,19.15
2019-05-18T05:25:30.219Z,17.73
2019-05-18T05:28:00.031Z,19.07
2019-05-18T05:30:29.908Z,18.15
2019-05-18T05:32:59.735Z,17.55
2019-05-18T05:35:29.904Z,16.80
2019-05-18T05:37:59.718Z,17.35
2019-05-18T05:40:29.601Z,17.80
2019-05-18T05:42:59.731Z,19.45
2019-05-18T05:45:29.848Z,17.85
2019-05-18T05:48:01.015Z,19.12
2019-05-18T05:50:36.170Z,17.42
2019-05-18T05:53:02.350Z,17.92
2019-05-18T05:55:33.502Z,18.87
2019-05-18T05:58:03.642Z,16.65
2019-05-18T06:00:33.762Z,16.73
2019-05-18T06:03:03.971Z,17.40
2019-05-18T06:05:34.466Z,17.02
2019-05-18T06:08:04.278Z,18.67
2019-05-18T06:10:34.449Z,18.12
2019-05-18T06:13:04.330Z,18.50
2019-05-18T06:15:34.211Z,19.17
2019-05-18T06:18:04.428Z,20.32
2019-05-18T06:20:49.025Z,18.10
2019-05-18T06:23:06.125Z,18.15
2019-05-18T06:25:35.936Z,17.00
2019-05-18T06:28:05.902Z,18.20
2019-05-18T06:30:35.730Z,17.20
2019-05-18T06:33:05.854Z,17.40
2019-05-18T06:35:36.043Z,15.83
2019-05-18T06:38:05.851Z,16.70
2019-05-18T06:40:36.024Z,17.48
2019-05-18T06:43:05.831Z,15.88
2019-05-18T06:45:35.711Z,15.43
2019-05-18T06:48:06.668Z,15.78
2019-05-18T06:50:36.805Z,15.93
2019-05-18T06:53:06.700Z,14.95
2019-05-18T06:55:36.944Z,13.88
2019-05-18T06:58:07.112Z,14.07
2019-05-18T07:00:37.291Z,14.03
2019-05-18T07:03:07.133Z,13.62
2019-05-18T07:05:37.213Z,14.00
2019-05-18T07:08:07.098Z,13.43
2019-05-18T07:10:36.928Z,14.30
2019-05-18T07:13:07.068Z,14.35
2019-05-18T07:15:36.912Z,13.55
2019-05-18T07:18:07.003Z,13.25
2019-05-18T07:20:36.821Z,12.60
2019-05-18T07:23:07.035Z,11.97
2019-05-18T07:25:36.849Z,12.45
2019-05-18T07:28:06.967Z,13.03
2019-05-18T07:30:36.789Z,12.82
2019-05-18T07:33:07.118Z,13.10
2019-05-18T07:35:36.927Z,13.65
2019-05-18T07:38:06.827Z,13.60
2019-05-18T07:40:36.957Z,12.15
2019-05-18T07:43:07.067Z,13.58
2019-05-18T07:45:37.197Z,13.53
2019-05-18T07:48:07.165Z,13.65
2019-05-18T07:50:37.336Z,12.90
2019-05-18T07:53:08.586Z,14.45
2019-05-18T07:55:38.716Z,13.28
2019-05-18T07:58:08.535Z,13.62
2019-05-18T08:00:38.603Z,13.13
2019-05-18T08:03:08.847Z,13.08
2019-05-18T08:05:38.742Z,13.83
2019-05-18T08:08:08.585Z,14.58
2019-05-18T08:10:39.319Z,13.48
2019-05-18T08:13:09.674Z,12.80
2019-05-18T08:15:39.869Z,14.63
2019-05-18T08:18:10.802Z,13.62
2019-05-18T08:20:40.679Z,13.50
2019-05-18T08:23:10.507Z,13.90
2019-05-18T08:25:40.331Z,14.60
2019-05-18T08:28:10.168Z,12.90
2019-05-18T08:30:39.992Z,13.72
2019-05-18T08:33:09.820Z,14.10
2019-05-18T08:35:41.132Z,14.47
2019-05-18T08:38:10.947Z,12.85
2019-05-18T08:40:40.801Z,13.38
2019-05-18T08:43:10.976Z,13.22
2019-05-18T08:45:41.097Z,13.90
2019-05-18T08:48:10.915Z,12.85
2019-05-18T08:50:41.027Z,14.07
2019-05-18T08:53:11.150Z,13.68
2019-05-18T08:55:41.372Z,12.58
2019-05-18T08:58:11.492Z,13.53
2019-05-18T09:00:41.330Z,13.45
2019-05-18T09:03:11.541Z,14.03
2019-05-18T09:05:42.155Z,13.28
2019-05-18T09:08:11.972Z,13.35
2019-05-18T09:10:42.111Z,14.00
2019-05-18T09:13:12.221Z,14.40
2019-05-18T09:15:42.122Z,13.50
2019-05-18T09:18:12.011Z,13.83
2019-05-18T09:20:41.834Z,14.07
2019-05-18T09:23:11.980Z,14.63
2019-05-18T09:25:42.508Z,14.80
2019-05-18T09:28:12.323Z,15.43
2019-05-18T09:30:42.135Z,14.60
2019-05-18T09:33:11.947Z,14.53
2019-05-18T09:35:41.763Z,13.88
2019-05-18T09:38:14.264Z,14.43
2019-05-18T09:40:44.265Z,13.13
2019-05-18T09:43:14.088Z,13.15
2019-05-18T09:45:44.204Z,13.00
2019-05-18T09:48:14.106Z,13.20
2019-05-18T09:50:44.006Z,15.13
2019-05-18T09:53:13.824Z,13.70
2019-05-18T09:55:43.670Z,14.55
2019-05-18T09:58:13.971Z,14.60
2019-05-18T10:00:44.093Z,14.87
2019-05-18T10:03:14.326Z,15.88
2019-05-18T10:05:44.552Z,14.35
2019-05-18T10:08:14.957Z,14.40
2019-05-18T10:10:45.602Z,14.10
2019-05-18T10:13:15.810Z,13.98
2019-05-18T10:15:45.624Z,15.08
2019-05-18T10:18:15.450Z,14.63
2019-05-18T10:20:45.566Z,14.13
2019-05-18T10:23:15.400Z,14.70
2019-05-18T10:25:45.692Z,15.35
2019-05-18T10:28:15.513Z,17.52
2019-05-18T10:30:45.619Z,14.60
2019-05-18T10:33:15.442Z,17.98
2019-05-18T10:35:45.554Z,17.27
2019-05-18T10:38:15.371Z,16.93
2019-05-18T10:40:45.184Z,16.40
2019-05-18T10:43:15.302Z,16.77
2019-05-18T10:45:45.449Z,14.90
2019-05-18T10:48:16.774Z,15.78
2019-05-18T10:50:46.626Z,14.70
2019-05-18T10:53:28.306Z,13.43
2019-05-18T10:55:48.191Z,14.18
2019-05-18T10:58:18.381Z,15.03
2019-05-18T11:00:48.291Z,14.25
2019-05-18T11:03:18.217Z,16.62
2019-05-18T11:05:48.655Z,16.17
2019-05-18T11:08:18.538Z,16.82
2019-05-18T11:10:48.768Z,16.75
2019-05-18T11:13:18.593Z,17.05
2019-05-18T11:15:49.935Z,15.50
2019-05-18T11:18:20.167Z,15.00
2019-05-18T11:20:50.283Z,15.55
2019-05-18T11:23:20.395Z,17.40
2019-05-18T11:25:50.511Z,17.48
2019-05-18T11:28:20.644Z,17.85
2019-05-18T11:30:51.876Z,15.85
2019-05-18T11:33:21.718Z,16.12
2019-05-18T11:35:51.882Z,16.30
2019-05-18T11:38:22.036Z,14.63
2019-05-18T11:40:51.877Z,13.60
2019-05-18T11:43:21.781Z,14.45
2019-05-18T11:45:51.997Z,14.35
2019-05-18T11:48:21.860Z,12.37
2019-05-18T11:50:51.852Z,14.07
2019-05-18T11:53:22.145Z,13.60
2019-05-18T11:55:52.390Z,13.78
2019-05-18T11:58:22.336Z,13.58
2019-05-18T12:00:52.431Z,14.25
2019-05-18T12:03:22.251Z,13.70
2019-05-18T12:05:52.457Z,11.38
2019-05-18T12:08:22.340Z,12.10
2019-05-18T12:10:52.365Z,14.07
2019-05-18T12:13:22.725Z,15.72
2019-05-18T12:15:52.933Z,13.75
2019-05-18T12:18:23.085Z,13.88
2019-05-18T12:20:53.270Z,14.30
2019-05-18T12:23:23.154Z,14.15
2019-05-18T12:25:53.062Z,13.55
2019-05-18T12:28:23.219Z,12.50
2019-05-18T12:30:53.051Z,12.53
2019-05-18T12:33:22.867Z,15.55
2019-05-18T12:35:52.686Z,14.70
2019-05-18T12:38:22.751Z,13.28
2019-05-18T12:40:52.952Z,10.03
2019-05-18T12:43:22.799Z,9.80
2019-05-18T12:45:54.156Z,13.35
2019-05-18T12:48:24.421Z,13.30
2019-05-18T12:50:54.539Z,11.38
2019-05-18T12:53:24.441Z,12.65
2019-05-18T12:55:54.579Z,13.08
2019-05-18T12:58:24.427Z,11.78
2019-05-18T13:00:54.272Z,11.70
2019-05-18T13:03:24.418Z,12.93
2019-05-18T13:05:54.264Z,12.30
2019-05-18T13:08:24.091Z,11.97
2019-05-18T13:10:54.010Z,12.68
2019-05-18T13:13:23.911Z,11.48
2019-05-18T13:15:53.814Z,10.53
2019-05-18T13:18:23.716Z,9.78
2019-05-18T13:20:53.652Z,11.40
2019-05-18T13:23:23.558Z,10.72
2019-05-18T13:25:53.390Z,12.23
2019-05-18T13:28:23.225Z,11.83
2019-05-18T13:30:53.397Z,12.80
2019-05-18T13:33:23.507Z,11.20
2019-05-18T13:35:53.669Z,12.37
2019-05-18T13:38:23.867Z,13.90
2019-05-18T13:40:53.743Z,11.93
2019-05-18T13:43:23.997Z,11.25
2019-05-18T13:45:53.962Z,10.20
2019-05-18T13:48:24.124Z,8.75
2019-05-18T13:50:53.927Z,10.65
2019-05-18T13:53:24.102Z,11.43
2019-05-18T13:55:54.184Z,9.13
2019-05-18T13:58:24.097Z,10.53
2019-05-18T14:00:54.073Z,10.63
2019-05-18T14:03:24.342Z,10.50
2019-05-18T14:05:55.201Z,9.88
2019-05-18T14:08:25.403Z,11.40
2019-05-18T14:10:55.252Z,11.38
2019-05-18T14:13:25.138Z,12.03
2019-05-18T14:15:55.253Z,10.15
2019-05-18T14:18:25.145Z,9.70
2019-05-18T14:20:55.393Z,9.93
2019-05-18T14:23:25.513Z,9.95
2019-05-18T14:25:56.221Z,8.80
2019-05-18T14:28:26.473Z,10.18
2019-05-18T14:30:56.581Z,10.48
2019-05-18T14:33:26.806Z,9.70
2019-05-18T14:35:56.620Z,10.75
2019-05-18T14:38:26.443Z,12.98
2019-05-18T14:40:56.556Z,11.10
2019-05-18T14:43:27.082Z,11.80
2019-05-18T14:45:57.210Z,11.35
2019-05-18T14:48:27.032Z,12.37
2019-05-18T14:50:56.982Z,10.95
2019-05-18T14:53:26.875Z,10.18
2019-05-18T14:55:56.674Z,9.43
2019-05-18T14:58:26.899Z,7.37
2019-05-18T15:00:57.027Z,5.37
2019-05-18T15:03:26.847Z,7.00
2019-05-18T15:05:56.962Z,6.20
2019-05-18T15:08:26.829Z,8.53
2019-05-18T15:10:56.639Z,8.90
2019-05-18T15:13:26.439Z,9.85
2019-05-18T15:15:56.592Z,9.08
2019-05-18T15:18:26.425Z,8.95
2019-05-18T15:20:56.533Z,9.58
2019-05-18T15:23:26.469Z,8.43
2019-05-18T15:25:57.720Z,8.90
2019-05-18T15:28:28.013Z,9.20
2019-05-18T15:30:57.878Z,9.10
2019-05-18T15:33:28.046Z,9.53
2019-05-18T15:35:58.155Z,10.50
2019-05-18T15:38:28.392Z,9.83
2019-05-18T15:40:58.291Z,9.88
2019-05-18T15:43:28.280Z,10.15
2019-05-18T15:45:58.109Z,9.15
2019-05-18T15:48:28.051Z,9.90
2019-05-18T15:50:59.375Z,10.32
2019-05-18T15:53:29.599Z,9.68
2019-05-18T15:56:05.897Z,9.63
2019-05-18T15:58:31.186Z,9.48
2019-05-18T16:01:01.100Z,8.20
2019-05-18T16:03:30.963Z,7.85
2019-05-18T16:06:00.787Z,8.95
2019-05-18T16:08:30.605Z,9.60
2019-05-18T16:11:00.545Z,10.55
2019-05-18T16:13:31.002Z,9.20
2019-05-18T16:16:01.204Z,9.25
2019-05-18T16:18:31.187Z,10.65
2019-05-18T16:21:01.054Z,10.23
2019-05-18T16:23:31.274Z,8.63
2019-05-18T16:26:02.069Z,8.93
2019-05-18T16:28:32.422Z,8.83
2019-05-18T16:31:02.533Z,8.95
2019-05-18T16:33:32.340Z,9.48
2019-05-18T16:36:02.323Z,10.45
2019-05-18T16:38:32.236Z,9.45
2019-05-18T16:41:02.404Z,10.68
2019-05-18T16:43:32.527Z,10.80
2019-05-18T16:46:02.361Z,9.75
2019-05-18T16:48:33.707Z,9.90
2019-05-18T16:51:03.687Z,11.15
2019-05-18T16:53:33.517Z,10.68
2019-05-18T16:56:03.329Z,9.78
2019-05-18T16:58:33.479Z,8.63
2019-05-18T17:01:03.418Z,8.43
2019-05-18T17:03:33.593Z,8.78
2019-05-18T17:06:03.553Z,8.63
2019-05-18T17:08:33.373Z,8.38
2019-05-18T17:11:03.378Z,5.20
2019-05-18T17:13:33.188Z,5.65
2019-05-18T17:16:03.383Z,4.67
2019-05-18T17:18:33.291Z,5.00
2019-05-18T17:21:03.083Z,4.72
2019-05-18T17:23:32.920Z,4.53
2019-05-18T17:26:03.470Z,5.03
2019-05-18T17:28:33.284Z,4.67
2019-05-18T17:31:03.184Z,5.45
2019-05-18T17:33:33.390Z,5.17
2019-05-18T17:36:05.187Z,4.60
2019-05-18T17:38:35.042Z,4.55
2019-05-18T17:41:05.289Z,3.85
2019-05-18T17:43:35.414Z,3.52
2019-05-18T17:46:05.238Z,3.00
2019-05-18T17:48:35.467Z,2.62
2019-05-18T17:51:05.290Z,2.60
2019-05-18T17:53:35.483Z,4.22
2019-05-18T17:56:05.691Z,2.87
2019-05-18T17:58:35.577Z,2.75
2019-05-18T18:01:05.729Z,2.87
2019-05-18T18:03:35.969Z,2.90
2019-05-18T18:06:05.776Z,3.10
2019-05-18T18:08:35.896Z,3.00
2019-05-18T18:11:06.112Z,4.70
2019-05-18T18:13:36.369Z,3.45
2019-05-18T18:16:06.341Z,2.77
2019-05-18T18:18:36.468Z,2.42
2019-05-18T18:21:06.467Z,3.20
2019-05-18T18:23:36.606Z,2.80
2019-05-18T18:26:06.498Z,3.35
2019-05-18T18:28:36.299Z,3.02
2019-05-18T18:31:06.203Z,3.17
2019-05-18T18:33:36.369Z,2.70
2019-05-18T18:36:06.604Z,2.98
2019-05-18T18:38:36.703Z,2.70
2019-05-18T18:41:06.589Z,2.60
2019-05-18T18:43:36.392Z,2.47
2019-05-18T18:46:06.687Z,2.75
2019-05-18T18:48:36.577Z,3.12
2019-05-18T18:51:06.737Z,2.77
2019-05-18T18:53:36.948Z,3.08
2019-05-18T18:56:06.947Z,3.35
2019-05-18T18:58:37.329Z,3.45
2019-05-18T19:01:07.219Z,3.02
2019-05-18T19:03:37.309Z,3.47
2019-05-18T19:06:07.194Z,3.37
2019-05-18T19:08:37.017Z,3.90
2019-05-18T19:11:07.182Z,3.77
2019-05-18T19:13:37.005Z,3.98
2019-05-18T19:16:06.893Z,4.45
2019-05-18T19:18:36.777Z,6.75
2019-05-18T19:21:07.681Z,5.17
2019-05-18T19:23:37.548Z,4.67
2019-05-18T19:26:07.686Z,5.45
2019-05-18T19:28:37.619Z,5.45
2019-05-18T19:31:10.999Z,3.87
2019-05-18T19:36:11.735Z,4.00
2019-05-18T19:38:44.935Z,3.95
2019-05-18T19:41:15.177Z,4.22
2019-05-18T19:43:45.021Z,5.62
2019-05-18T19:46:15.306Z,4.72
2019-05-18T19:48:45.912Z,4.83
2019-05-18T19:51:16.239Z,8.43
2019-05-18T19:53:46.526Z,12.43
2019-05-18T19:56:16.601Z,6.35
2019-05-18T19:58:46.877Z,5.95
2019-05-18T20:01:16.779Z,5.25
2019-05-18T20:03:46.658Z,6.00
2019-05-18T20:06:16.480Z,6.37
2019-05-18T20:08:46.587Z,6.87
2019-05-18T20:11:16.402Z,7.65
2019-05-18T20:13:46.214Z,6.97
2019-05-18T20:16:18.383Z,5.90
2019-05-18T20:18:48.206Z,5.35
2019-05-18T20:21:18.182Z,5.62
2019-05-18T20:23:48.333Z,5.50
2019-05-18T20:26:18.455Z,5.20
2019-05-18T20:28:48.270Z,5.22
2019-05-18T20:31:18.376Z,6.20
2019-05-18T20:33:48.496Z,6.72
2019-05-18T20:36:18.622Z,7.37
2019-05-18T20:38:48.507Z,7.62
2019-05-18T20:41:18.652Z,6.22
2019-05-18T20:43:48.465Z,6.90
2019-05-18T20:46:18.352Z,7.20
2019-05-18T20:48:48.151Z,6.97
2019-05-18T20:51:18.026Z,7.95
2019-05-18T20:53:48.228Z,6.95
2019-05-18T20:56:18.047Z,7.40
2019-05-18T20:58:48.194Z,7.15
2019-05-18T21:01:18.366Z,7.10
2019-05-18T21:03:48.182Z,7.20
2019-05-18T21:06:18.052Z,7.60
2019-05-18T21:08:47.885Z,7.58
2019-05-18T21:11:17.755Z,8.63
2019-05-18T21:13:47.552Z,8.28
2019-05-18T21:16:17.425Z,16.73
2019-05-18T21:18:47.525Z,11.03
2019-05-18T21:21:17.611Z,10.50
2019-05-18T21:23:47.469Z,10.15
2019-05-18T21:26:17.545Z,11.20
2019-05-18T21:28:56.221Z,10.38
2019-05-18T21:31:19.220Z,11.08
2019-05-18T21:33:49.055Z,11.75
2019-05-18T21:36:19.194Z,11.38
2019-05-18T21:38:49.039Z,11.68
2019-05-18T21:41:19.295Z,11.20
2019-05-18T21:43:49.515Z,11.33
2019-05-18T21:46:19.638Z,11.57
2019-05-18T21:48:50.887Z,12.18
2019-05-18T21:51:20.697Z,11.18
2019-05-18T21:53:50.595Z,11.30
2019-05-18T21:56:20.841Z,11.45
2019-05-18T21:58:50.694Z,11.93
2019-05-18T22:01:20.499Z,11.80
2019-05-18T22:03:50.688Z,11.63
2019-05-18T22:06:20.813Z,12.15
2019-05-18T22:08:50.681Z,12.07
2019-05-18T22:11:20.581Z,12.40
2019-05-18T22:13:50.757Z,12.50
2019-05-18T22:16:20.889Z,13.78
2019-05-18T22:18:50.989Z,13.40
2019-05-18T22:21:21.117Z,14.53
2019-05-18T22:23:50.959Z,13.55
2019-05-18T22:26:20.784Z,14.63
2019-05-18T22:28:50.957Z,15.13
2019-05-18T22:31:21.100Z,15.55
2019-05-18T22:33:50.941Z,14.60
2019-05-18T22:36:21.215Z,15.63
2019-05-18T22:38:51.503Z,15.80
2019-05-18T22:41:21.803Z,16.37
2019-05-18T22:43:51.635Z,19.02
2019-05-18T22:46:21.547Z,18.25
2019-05-18T22:48:51.831Z,18.37
2019-05-18T22:51:21.652Z,18.75
2019-05-18T22:53:51.564Z,19.62
2019-05-18T22:56:21.762Z,20.02
2019-05-18T22:58:53.017Z,19.30
2019-05-18T23:01:22.834Z,21.15
2019-05-18T23:03:52.681Z,21.33
2019-05-18T23:06:22.759Z,21.25
2019-05-18T23:08:52.605Z,21.05
2019-05-18T23:11:22.433Z,21.87
2019-05-18T23:13:52.337Z,21.68
2019-05-18T23:16:22.526Z,20.68
2019-05-18T23:18:56.933Z,22.07
2019-05-18T23:21:24.562Z,23.18
2019-05-18T23:23:54.467Z,21.25
2019-05-18T23:26:24.343Z,21.23
2019-05-18T23:28:54.557Z,20.80
2019-05-18T23:31:24.709Z,22.65
2019-05-18T23:33:54.559Z,21.60
2019-05-18T23:36:24.713Z,22.80
2019-05-18T23:38:54.591Z,24.15
2019-05-18T23:41:24.540Z,24.40
2019-05-18T23:43:54.769Z,24.98
2019-05-18T23:46:24.886Z,25.55
2019-05-18T23:48:54.699Z,25.77
2019-05-18T23:51:24.517Z,29.25
2019-05-18T23:53:54.623Z,30.37
2019-05-18T23:56:24.749Z,30.30
2019-05-18T23:58:54.869Z,31.50
